CFE102 EGAC-EGLC
Flight info
| Callsign | CFE102 |
|---|---|
| Flight time | 1h 9m |
| Altitude | 33000 |
| Route | DCT DUFFY L10 RINGA Q39 ETIGA DCT INKOB Q39 NOMSU UQ4 LISTO LISTO1C |
| Aircraft | E190/M-SDE2E3GIJ1LORVWXY/SB1 |
Departure
| Time | 2026-05-07 20:41 |
|---|---|
| Airport | George Best Belfast City Airport (EGAC) |
Arrival
| Time | 2026-05-07 21:50 |
|---|---|
| Airport | London City Airport (EGLC) |
| Time | Latitude | Longitude | Altitude | Speed | Heading |
|---|---|---|---|---|---|
| 2026-05-07 20:28 | 54.61499 | -5.87149 | 20 ft | 0 kts | 160° |
| 2026-05-07 20:35 | 54.61506 | -5.87153 | 21 ft | 3 kts | 155° |
| 2026-05-07 20:35 | 54.61522 | -5.87170 | 21 ft | 3 kts | 125° |
| 2026-05-07 20:35 | 54.61530 | -5.87198 | 21 ft | 3 kts | 87° |
| 2026-05-07 20:36 | 54.61526 | -5.87228 | 19 ft | 3 kts | 44° |
| 2026-05-07 20:36 | 54.61521 | -5.87235 | 21 ft | 0 kts | 35° |
| 2026-05-07 20:37 | 54.61536 | -5.87218 | 21 ft | 4 kts | 34° |
| 2026-05-07 20:37 | 54.61574 | -5.87171 | 21 ft | 8 kts | 36° |
| 2026-05-07 20:37 | 54.61629 | -5.87105 | 21 ft | 12 kts | 35° |
| 2026-05-07 20:37 | 54.61703 | -5.87018 | 20 ft | 13 kts | 34° |
| 2026-05-07 20:38 | 54.61778 | -5.87046 | 19 ft | 13 kts | 308° |
| 2026-05-07 20:38 | 54.61845 | -5.87158 | 21 ft | 13 kts | 341° |
| 2026-05-07 20:38 | 54.61933 | -5.87099 | 19 ft | 18 kts | 32° |
| 2026-05-07 20:38 | 54.62054 | -5.86962 | 20 ft | 22 kts | 33° |
| 2026-05-07 20:39 | 54.62181 | -5.86812 | 21 ft | 22 kts | 35° |
| 2026-05-07 20:39 | 54.62306 | -5.86662 | 22 ft | 22 kts | 33° |
| 2026-05-07 20:39 | 54.62414 | -5.86550 | 24 ft | 14 kts | 11° |
| 2026-05-07 20:39 | 54.62478 | -5.86487 | 22 ft | 9 kts | 114° |
| 2026-05-07 20:40 | 54.62452 | -5.86491 | 22 ft | 0 kts | 209° |
| 2026-05-07 20:40 | 54.62361 | -5.86595 | 24 ft | 45 kts | 215° |
| 2026-05-07 20:40 | 54.61924 | -5.87113 | 20 ft | 106 kts | 215° |
| 2026-05-07 20:40 | 54.61190 | -5.87972 | 138 ft | 139 kts | 214° |
| 2026-05-07 20:41 | 54.60363 | -5.88912 | 583 ft | 154 kts | 210° |
| 2026-05-07 20:41 | 54.59277 | -5.89601 | 560 ft | 186 kts | 187° |
| 2026-05-07 20:41 | 54.57913 | -5.89338 | 908 ft | 211 kts | 167° |
| 2026-05-07 20:41 | 54.56372 | -5.88606 | 1179 ft | 244 kts | 165° |
| 2026-05-07 20:42 | 54.54719 | -5.87766 | 1856 ft | 255 kts | 166° |
| 2026-05-07 20:42 | 54.53004 | -5.86910 | 2775 ft | 258 kts | 166° |
| 2026-05-07 20:42 | 54.51364 | -5.85628 | 3643 ft | 263 kts | 143° |
| 2026-05-07 20:42 | 54.50202 | -5.83176 | 4518 ft | 266 kts | 126° |
| 2026-05-07 20:43 | 54.49168 | -5.80526 | 5300 ft | 267 kts | 127° |
| 2026-05-07 20:43 | 54.48104 | -5.77882 | 6011 ft | 270 kts | 128° |
| 2026-05-07 20:43 | 54.47032 | -5.75201 | 6661 ft | 274 kts | 128° |
| 2026-05-07 20:43 | 54.45949 | -5.72497 | 7296 ft | 276 kts | 128° |
| 2026-05-07 20:44 | 54.44859 | -5.69768 | 7918 ft | 278 kts | 128° |
| 2026-05-07 20:44 | 54.43764 | -5.67019 | 8515 ft | 280 kts | 128° |
| 2026-05-07 20:44 | 54.42675 | -5.64283 | 9138 ft | 282 kts | 127° |
| 2026-05-07 20:44 | 54.41565 | -5.61487 | 9797 ft | 284 kts | 127° |
| 2026-05-07 20:45 | 54.40449 | -5.58669 | 10381 ft | 287 kts | 128° |
| 2026-05-07 20:45 | 54.39318 | -5.55813 | 10960 ft | 290 kts | 128° |
| 2026-05-07 20:45 | 54.38161 | -5.52948 | 11547 ft | 294 kts | 128° |
| 2026-05-07 20:45 | 54.36988 | -5.50047 | 12133 ft | 297 kts | 128° |
| 2026-05-07 20:46 | 54.35798 | -5.47114 | 12723 ft | 301 kts | 128° |
| 2026-05-07 20:46 | 54.34593 | -5.44142 | 13316 ft | 305 kts | 128° |
| 2026-05-07 20:46 | 54.33390 | -5.41180 | 13898 ft | 308 kts | 128° |
| 2026-05-07 20:46 | 54.32156 | -5.38144 | 14466 ft | 311 kts | 129° |
| 2026-05-07 20:47 | 54.30911 | -5.35087 | 15037 ft | 314 kts | 129° |
| 2026-05-07 20:47 | 54.29659 | -5.32012 | 15598 ft | 317 kts | 129° |
| 2026-05-07 20:47 | 54.28385 | -5.28892 | 16167 ft | 320 kts | 129° |
| 2026-05-07 20:47 | 54.27093 | -5.25780 | 16734 ft | 321 kts | 132° |
| 2026-05-07 20:48 | 54.25661 | -5.22836 | 17313 ft | 323 kts | 134° |
| 2026-05-07 20:48 | 54.24219 | -5.19868 | 17895 ft | 326 kts | 134° |
| 2026-05-07 20:48 | 54.22761 | -5.16858 | 18459 ft | 329 kts | 134° |
| 2026-05-07 20:48 | 54.21299 | -5.13827 | 19000 ft | 332 kts | 134° |
| 2026-05-07 20:49 | 54.19826 | -5.10775 | 19533 ft | 334 kts | 134° |
| 2026-05-07 20:49 | 54.18361 | -5.07736 | 20059 ft | 336 kts | 134° |
| 2026-05-07 20:49 | 54.16868 | -5.04643 | 20593 ft | 339 kts | 134° |
| 2026-05-07 20:49 | 54.15363 | -5.01526 | 21106 ft | 341 kts | 134° |
| 2026-05-07 20:50 | 54.13846 | -4.98387 | 21602 ft | 344 kts | 134° |
| 2026-05-07 20:50 | 54.12318 | -4.95227 | 22088 ft | 347 kts | 134° |
| 2026-05-07 20:50 | 54.10775 | -4.92041 | 22581 ft | 349 kts | 134° |
| 2026-05-07 20:50 | 54.09222 | -4.88837 | 23075 ft | 352 kts | 134° |
| 2026-05-07 20:51 | 54.07656 | -4.85609 | 23575 ft | 354 kts | 134° |
| 2026-05-07 20:51 | 54.06095 | -4.82396 | 23997 ft | 356 kts | 134° |
| 2026-05-07 20:51 | 54.04480 | -4.79082 | 24075 ft | 370 kts | 134° |
| 2026-05-07 20:51 | 54.02850 | -4.75577 | 24163 ft | 384 kts | 130° |
| 2026-05-07 20:52 | 54.01238 | -4.71920 | 24457 ft | 388 kts | 131° |
| 2026-05-07 20:52 | 53.99607 | -4.68251 | 24838 ft | 390 kts | 131° |
| 2026-05-07 20:52 | 53.97963 | -4.64566 | 25227 ft | 392 kts | 131° |
| 2026-05-07 20:52 | 53.96312 | -4.60877 | 25599 ft | 393 kts | 131° |
| 2026-05-07 20:53 | 53.94651 | -4.57178 | 25959 ft | 395 kts | 131° |
| 2026-05-07 20:53 | 53.92976 | -4.53453 | 26296 ft | 396 kts | 131° |
| 2026-05-07 20:53 | 53.91300 | -4.49736 | 26639 ft | 398 kts | 131° |
| 2026-05-07 20:53 | 53.89611 | -4.45996 | 26966 ft | 400 kts | 131° |
| 2026-05-07 20:54 | 53.87936 | -4.42294 | 27286 ft | 401 kts | 131° |
| 2026-05-07 20:54 | 53.86240 | -4.38514 | 27611 ft | 404 kts | 129° |
| 2026-05-07 20:54 | 53.84641 | -4.34563 | 27923 ft | 406 kts | 128° |
| 2026-05-07 20:54 | 53.83043 | -4.30604 | 28224 ft | 408 kts | 128° |
| 2026-05-07 20:55 | 53.81979 | -4.27979 | 28422 ft | 409 kts | 128° |
| 2026-05-07 20:55 | 53.80358 | -4.24001 | 28717 ft | 411 kts | 128° |
| 2026-05-07 20:55 | 53.78721 | -4.19996 | 28991 ft | 413 kts | 128° |
| 2026-05-07 20:55 | 53.77084 | -4.16003 | 29283 ft | 414 kts | 128° |
| 2026-05-07 20:56 | 53.75434 | -4.11987 | 29551 ft | 416 kts | 128° |
| 2026-05-07 20:56 | 53.73780 | -4.07971 | 29814 ft | 417 kts | 128° |
| 2026-05-07 20:56 | 53.72115 | -4.03936 | 30067 ft | 419 kts | 128° |
| 2026-05-07 20:56 | 53.70466 | -3.99948 | 30280 ft | 420 kts | 128° |
| 2026-05-07 20:57 | 53.68788 | -3.95896 | 30485 ft | 422 kts | 128° |
| 2026-05-07 20:57 | 53.67102 | -3.91834 | 30688 ft | 423 kts | 128° |
| 2026-05-07 20:57 | 53.65411 | -3.87758 | 30858 ft | 425 kts | 128° |
| 2026-05-07 20:57 | 53.63713 | -3.83677 | 31095 ft | 425 kts | 128° |
| 2026-05-07 20:58 | 53.62018 | -3.79603 | 31344 ft | 424 kts | 128° |
| 2026-05-07 20:58 | 53.60318 | -3.75531 | 31590 ft | 424 kts | 128° |
| 2026-05-07 20:58 | 53.58626 | -3.71479 | 31836 ft | 423 kts | 128° |
| 2026-05-07 20:58 | 53.56928 | -3.67423 | 32069 ft | 423 kts | 128° |
| 2026-05-07 20:59 | 53.55234 | -3.63382 | 32289 ft | 423 kts | 128° |
| 2026-05-07 20:59 | 53.53535 | -3.59337 | 32504 ft | 423 kts | 128° |
| 2026-05-07 20:59 | 53.51837 | -3.55299 | 32715 ft | 422 kts | 128° |
| 2026-05-07 20:59 | 53.50141 | -3.51272 | 32934 ft | 422 kts | 128° |
| 2026-05-07 21:00 | 53.48432 | -3.47226 | 32947 ft | 428 kts | 128° |
| 2026-05-07 21:00 | 53.45469 | -3.38470 | 32963 ft | 442 kts | 116° |
| 2026-05-07 21:01 | 53.42882 | -3.29041 | 32988 ft | 446 kts | 126° |
| 2026-05-07 21:01 | 53.38888 | -3.21070 | 32982 ft | 445 kts | 135° |
| 2026-05-07 21:01 | 53.36829 | -3.17341 | 33005 ft | 432 kts | 136° |
| 2026-05-07 21:02 | 53.34773 | -3.13633 | 33054 ft | 436 kts | 136° |
| 2026-05-07 21:02 | 53.30635 | -3.06149 | 33064 ft | 445 kts | 135° |
| 2026-05-07 21:03 | 53.26410 | -2.98501 | 33022 ft | 449 kts | 135° |
| 2026-05-07 21:03 | 53.22156 | -2.90829 | 33016 ft | 450 kts | 136° |
| 2026-05-07 21:04 | 53.17892 | -2.83160 | 33021 ft | 451 kts | 136° |
| 2026-05-07 21:04 | 53.13647 | -2.75548 | 33021 ft | 451 kts | 136° |
| 2026-05-07 21:05 | 53.09376 | -2.67911 | 33026 ft | 451 kts | 136° |
| 2026-05-07 21:05 | 53.05097 | -2.60285 | 33022 ft | 451 kts | 136° |
| 2026-05-07 21:06 | 53.00810 | -2.52668 | 33025 ft | 451 kts | 136° |
| 2026-05-07 21:06 | 52.96518 | -2.45065 | 33027 ft | 451 kts | 136° |
| 2026-05-07 21:07 | 52.92220 | -2.37476 | 33030 ft | 451 kts | 136° |
| 2026-05-07 21:07 | 52.87912 | -2.29893 | 33024 ft | 451 kts | 136° |
| 2026-05-07 21:08 | 52.83600 | -2.22326 | 33035 ft | 452 kts | 136° |
| 2026-05-07 21:08 | 52.79309 | -2.14819 | 33037 ft | 452 kts | 136° |
| 2026-05-07 21:09 | 52.74986 | -2.07279 | 33035 ft | 452 kts | 136° |
| 2026-05-07 21:09 | 52.70661 | -1.99756 | 33035 ft | 452 kts | 136° |
| 2026-05-07 21:10 | 52.66323 | -1.92239 | 33033 ft | 452 kts | 136° |
| 2026-05-07 21:10 | 52.61982 | -1.84724 | 33041 ft | 452 kts | 136° |
| 2026-05-07 21:11 | 52.57670 | -1.77276 | 33047 ft | 452 kts | 136° |
| 2026-05-07 21:11 | 52.51159 | -1.66059 | 33050 ft | 452 kts | 135° |
| 2026-05-07 21:12 | 52.49311 | -1.61849 | 33060 ft | 458 kts | 120° |
| 2026-05-07 21:12 | 52.48136 | -1.56969 | 33072 ft | 461 kts | 110° |
| 2026-05-07 21:12 | 52.46232 | -1.46880 | 33038 ft | 462 kts | 109° |
| 2026-05-07 21:13 | 52.44320 | -1.36873 | 33025 ft | 463 kts | 110° |
| 2026-05-07 21:13 | 52.42361 | -1.26802 | 33031 ft | 463 kts | 110° |
| 2026-05-07 21:14 | 52.40391 | -1.16744 | 33055 ft | 464 kts | 110° |
| 2026-05-07 21:14 | 52.38404 | -1.06658 | 33055 ft | 465 kts | 110° |
| 2026-05-07 21:15 | 52.36420 | -0.96633 | 33051 ft | 465 kts | 110° |
| 2026-05-07 21:15 | 52.34418 | -0.86572 | 33051 ft | 465 kts | 110° |
| 2026-05-07 21:16 | 52.32417 | -0.76570 | 33056 ft | 465 kts | 110° |
| 2026-05-07 21:16 | 52.30397 | -0.66517 | 33057 ft | 465 kts | 110° |
| 2026-05-07 21:17 | 52.28367 | -0.56473 | 33064 ft | 465 kts | 110° |
| 2026-05-07 21:17 | 52.26328 | -0.46438 | 33059 ft | 465 kts | 110° |
| 2026-05-07 21:18 | 52.24292 | -0.36449 | 32613 ft | 458 kts | 110° |
| 2026-05-07 21:18 | 52.23295 | -0.31563 | 32229 ft | 452 kts | 110° |
| 2026-05-07 21:18 | 52.22297 | -0.26686 | 31560 ft | 450 kts | 110° |
| 2026-05-07 21:19 | 52.21320 | -0.21942 | 30957 ft | 445 kts | 110° |
| 2026-05-07 21:19 | 52.20334 | -0.17181 | 30380 ft | 439 kts | 110° |
| 2026-05-07 21:19 | 52.19362 | -0.12505 | 29756 ft | 433 kts | 110° |
| 2026-05-07 21:19 | 52.18400 | -0.07893 | 29232 ft | 425 kts | 111° |
| 2026-05-07 21:20 | 52.17444 | -0.03340 | 28679 ft | 421 kts | 111° |
| 2026-05-07 21:20 | 52.16494 | 0.01170 | 28098 ft | 420 kts | 111° |
| 2026-05-07 21:20 | 52.15549 | 0.05642 | 27577 ft | 416 kts | 111° |
| 2026-05-07 21:20 | 52.14606 | 0.10090 | 26996 ft | 414 kts | 111° |
| 2026-05-07 21:21 | 52.13669 | 0.14493 | 26469 ft | 410 kts | 111° |
| 2026-05-07 21:21 | 52.12798 | 0.18896 | 25917 ft | 407 kts | 105° |
| 2026-05-07 21:21 | 52.12227 | 0.23430 | 24880 ft | 415 kts | 100° |
| 2026-05-07 21:21 | 52.11880 | 0.28094 | 24274 ft | 410 kts | 98° |
| 2026-05-07 21:22 | 52.11570 | 0.32665 | 23694 ft | 404 kts | 98° |
| 2026-05-07 21:22 | 52.11256 | 0.37171 | 23163 ft | 395 kts | 98° |
| 2026-05-07 21:22 | 52.10945 | 0.41499 | 22663 ft | 386 kts | 98° |
| 2026-05-07 21:22 | 52.10630 | 0.45792 | 22151 ft | 378 kts | 98° |
| 2026-05-07 21:23 | 52.10316 | 0.50014 | 21663 ft | 374 kts | 99° |
| 2026-05-07 21:23 | 52.09900 | 0.54161 | 21182 ft | 372 kts | 102° |
| 2026-05-07 21:23 | 52.09409 | 0.58302 | 20686 ft | 371 kts | 103° |
| 2026-05-07 21:23 | 52.08927 | 0.62421 | 20192 ft | 370 kts | 102° |
| 2026-05-07 21:24 | 52.08458 | 0.66530 | 19705 ft | 368 kts | 102° |
| 2026-05-07 21:24 | 52.08000 | 0.70601 | 19219 ft | 365 kts | 102° |
| 2026-05-07 21:24 | 52.07547 | 0.74651 | 18736 ft | 362 kts | 102° |
| 2026-05-07 21:24 | 52.07100 | 0.78647 | 18243 ft | 356 kts | 102° |
| 2026-05-07 21:25 | 52.06653 | 0.82569 | 17782 ft | 347 kts | 104° |
| 2026-05-07 21:25 | 52.05839 | 0.86173 | 17157 ft | 342 kts | 118° |
| 2026-05-07 21:25 | 52.04732 | 0.89528 | 16770 ft | 333 kts | 121° |
| 2026-05-07 21:25 | 52.03614 | 0.92790 | 16316 ft | 327 kts | 121° |
| 2026-05-07 21:26 | 52.02538 | 0.96003 | 15918 ft | 321 kts | 120° |
| 2026-05-07 21:26 | 52.01483 | 0.99162 | 15503 ft | 316 kts | 120° |
| 2026-05-07 21:26 | 52.00445 | 1.02290 | 15098 ft | 311 kts | 120° |
| 2026-05-07 21:26 | 51.99423 | 1.05377 | 14698 ft | 307 kts | 120° |
| 2026-05-07 21:27 | 51.98418 | 1.08418 | 14304 ft | 304 kts | 120° |
| 2026-05-07 21:27 | 51.97420 | 1.11440 | 13915 ft | 302 kts | 120° |
| 2026-05-07 21:27 | 51.96441 | 1.14400 | 13521 ft | 300 kts | 120° |
| 2026-05-07 21:27 | 51.95460 | 1.17372 | 13130 ft | 299 kts | 120° |
| 2026-05-07 21:28 | 51.94477 | 1.20342 | 12750 ft | 298 kts | 120° |
| 2026-05-07 21:28 | 51.93498 | 1.23300 | 12392 ft | 297 kts | 120° |
| 2026-05-07 21:28 | 51.92479 | 1.26195 | 12145 ft | 292 kts | 128° |
| 2026-05-07 21:28 | 51.90988 | 1.28366 | 11880 ft | 289 kts | 154° |
| 2026-05-07 21:29 | 51.89071 | 1.29158 | 11712 ft | 285 kts | 180° |
| 2026-05-07 21:29 | 51.87151 | 1.28519 | 11569 ft | 285 kts | 205° |
| 2026-05-07 21:29 | 51.85412 | 1.26964 | 11398 ft | 286 kts | 211° |
| 2026-05-07 21:29 | 51.83709 | 1.25298 | 11201 ft | 285 kts | 211° |
| 2026-05-07 21:30 | 51.82005 | 1.23666 | 11032 ft | 284 kts | 210° |
| 2026-05-07 21:30 | 51.80299 | 1.22046 | 10864 ft | 284 kts | 210° |
| 2026-05-07 21:30 | 51.78614 | 1.20456 | 10702 ft | 283 kts | 210° |
| 2026-05-07 21:30 | 51.76914 | 1.18859 | 10538 ft | 282 kts | 210° |
| 2026-05-07 21:31 | 51.75207 | 1.17264 | 10369 ft | 282 kts | 210° |
| 2026-05-07 21:31 | 51.73509 | 1.15682 | 10199 ft | 281 kts | 210° |
| 2026-05-07 21:31 | 51.71839 | 1.14134 | 10039 ft | 280 kts | 210° |
| 2026-05-07 21:31 | 51.70150 | 1.12571 | 9869 ft | 279 kts | 210° |
| 2026-05-07 21:32 | 51.68465 | 1.11020 | 9706 ft | 278 kts | 210° |
| 2026-05-07 21:32 | 51.66785 | 1.09478 | 9534 ft | 278 kts | 210° |
| 2026-05-07 21:32 | 51.65102 | 1.07940 | 9375 ft | 277 kts | 210° |
| 2026-05-07 21:32 | 51.63426 | 1.06410 | 9204 ft | 276 kts | 210° |
| 2026-05-07 21:33 | 51.61756 | 1.04893 | 9048 ft | 275 kts | 210° |
| 2026-05-07 21:33 | 51.60091 | 1.03384 | 8876 ft | 275 kts | 209° |
| 2026-05-07 21:33 | 51.58429 | 1.01882 | 8710 ft | 274 kts | 209° |
| 2026-05-07 21:33 | 51.56767 | 1.00384 | 8551 ft | 273 kts | 209° |
| 2026-05-07 21:34 | 51.55105 | 0.98895 | 8393 ft | 273 kts | 209° |
| 2026-05-07 21:34 | 51.53447 | 0.97407 | 8231 ft | 273 kts | 209° |
| 2026-05-07 21:34 | 51.51788 | 0.95928 | 8062 ft | 272 kts | 209° |
| 2026-05-07 21:34 | 51.50148 | 0.94470 | 7837 ft | 273 kts | 209° |
| 2026-05-07 21:35 | 51.48535 | 0.92857 | 7528 ft | 273 kts | 222° |
| 2026-05-07 21:35 | 51.47545 | 0.90312 | 7278 ft | 272 kts | 255° |
| 2026-05-07 21:35 | 51.47428 | 0.87270 | 6951 ft | 275 kts | 273° |
| 2026-05-07 21:35 | 51.47631 | 0.84200 | 6566 ft | 277 kts | 275° |
| 2026-05-07 21:36 | 51.47811 | 0.81142 | 6260 ft | 272 kts | 274° |
| 2026-05-07 21:36 | 51.47964 | 0.78160 | 6038 ft | 263 kts | 274° |
| 2026-05-07 21:36 | 51.48096 | 0.75298 | 5815 ft | 256 kts | 274° |
| 2026-05-07 21:36 | 51.48213 | 0.72499 | 5696 ft | 245 kts | 273° |
| 2026-05-07 21:37 | 51.48319 | 0.69822 | 5587 ft | 236 kts | 273° |
| 2026-05-07 21:37 | 51.48418 | 0.67231 | 5484 ft | 228 kts | 273° |
| 2026-05-07 21:37 | 51.48511 | 0.64714 | 5393 ft | 225 kts | 273° |
| 2026-05-07 21:37 | 51.48602 | 0.62197 | 5289 ft | 226 kts | 273° |
| 2026-05-07 21:38 | 51.48693 | 0.59682 | 5166 ft | 229 kts | 273° |
| 2026-05-07 21:38 | 51.48785 | 0.57126 | 4994 ft | 231 kts | 274° |
| 2026-05-07 21:38 | 51.48879 | 0.54545 | 4748 ft | 232 kts | 273° |
| 2026-05-07 21:38 | 51.48970 | 0.51970 | 4505 ft | 230 kts | 273° |
| 2026-05-07 21:39 | 51.49061 | 0.49427 | 4334 ft | 226 kts | 273° |
| 2026-05-07 21:39 | 51.49062 | 0.46920 | 4110 ft | 225 kts | 257° |
| 2026-05-07 21:39 | 51.48470 | 0.44622 | 3943 ft | 222 kts | 239° |
| 2026-05-07 21:39 | 51.47649 | 0.42503 | 3747 ft | 223 kts | 236° |
| 2026-05-07 21:40 | 51.46826 | 0.40410 | 3654 ft | 221 kts | 237° |
| 2026-05-07 21:40 | 51.46032 | 0.38323 | 3526 ft | 223 kts | 238° |
| 2026-05-07 21:40 | 51.45235 | 0.36188 | 3392 ft | 223 kts | 238° |
| 2026-05-07 21:40 | 51.44444 | 0.34044 | 3263 ft | 223 kts | 238° |
| 2026-05-07 21:41 | 51.43663 | 0.31924 | 3220 ft | 219 kts | 238° |
| 2026-05-07 21:41 | 51.43042 | 0.29713 | 3204 ft | 216 kts | 258° |
| 2026-05-07 21:41 | 51.42976 | 0.27411 | 3252 ft | 199 kts | 275° |
| 2026-05-07 21:41 | 51.43074 | 0.25964 | 3136 ft | 197 kts | 276° |
| 2026-05-07 21:42 | 51.43220 | 0.23821 | 3106 ft | 187 kts | 275° |
| 2026-05-07 21:42 | 51.43324 | 0.21754 | 3046 ft | 187 kts | 273° |
| 2026-05-07 21:42 | 51.43403 | 0.19643 | 2851 ft | 188 kts | 272° |
| 2026-05-07 21:42 | 51.43460 | 0.17693 | 2796 ft | 184 kts | 272° |
| 2026-05-07 21:43 | 51.43525 | 0.15649 | 2776 ft | 186 kts | 272° |
| 2026-05-07 21:43 | 51.43594 | 0.13580 | 2726 ft | 187 kts | 272° |
| 2026-05-07 21:43 | 51.43661 | 0.11514 | 2610 ft | 189 kts | 272° |
| 2026-05-07 21:43 | 51.43732 | 0.09383 | 2420 ft | 189 kts | 272° |
| 2026-05-07 21:44 | 51.43797 | 0.07346 | 2325 ft | 174 kts | 271° |
| 2026-05-07 21:44 | 51.43861 | 0.05483 | 2251 ft | 167 kts | 271° |
| 2026-05-07 21:44 | 51.43919 | 0.03630 | 2224 ft | 167 kts | 271° |
| 2026-05-07 21:44 | 51.43979 | 0.01753 | 2161 ft | 171 kts | 271° |
| 2026-05-07 21:45 | 51.44039 | -0.00193 | 1867 ft | 170 kts | 271° |
| 2026-05-07 21:45 | 51.44098 | -0.02036 | 1866 ft | 164 kts | 271° |
| 2026-05-07 21:45 | 51.44154 | -0.03850 | 1994 ft | 162 kts | 270° |
| 2026-05-07 21:45 | 51.44211 | -0.05705 | 2086 ft | 170 kts | 271° |
| 2026-05-07 21:46 | 51.44268 | -0.07582 | 2097 ft | 168 kts | 271° |
| 2026-05-07 21:46 | 51.44425 | -0.09461 | 1969 ft | 174 kts | 290° |
| 2026-05-07 21:46 | 51.45244 | -0.10769 | 1943 ft | 169 kts | 339° |
| 2026-05-07 21:46 | 51.46361 | -0.11251 | 2054 ft | 171 kts | 349° |
| 2026-05-07 21:47 | 51.47532 | -0.11627 | 2051 ft | 171 kts | 349° |
| 2026-05-07 21:47 | 51.48716 | -0.11874 | 1955 ft | 172 kts | 8° |
| 2026-05-07 21:47 | 51.49715 | -0.11007 | 1934 ft | 164 kts | 56° |
| 2026-05-07 21:47 | 51.50130 | -0.09359 | 2075 ft | 158 kts | 76° |
| 2026-05-07 21:48 | 51.50541 | -0.07682 | 2072 ft | 159 kts | 65° |
| 2026-05-07 21:48 | 51.50925 | -0.06099 | 1874 ft | 148 kts | 92° |
| 2026-05-07 21:48 | 51.50820 | -0.04550 | 1853 ft | 137 kts | 101° |
| 2026-05-07 21:48 | 51.50768 | -0.03050 | 1877 ft | 136 kts | 92° |
| 2026-05-07 21:49 | 51.50750 | -0.01490 | 1601 ft | 138 kts | 95° |
| 2026-05-07 21:49 | 51.50688 | 0.00055 | 1073 ft | 138 kts | 96° |
| 2026-05-07 21:49 | 51.50644 | 0.01540 | 711 ft | 130 kts | 94° |
| 2026-05-07 21:49 | 51.50603 | 0.02987 | 396 ft | 130 kts | 93° |
| 2026-05-07 21:50 | 51.50558 | 0.04432 | 89 ft | 130 kts | 92° |
| 2026-05-07 21:50 | 51.50519 | 0.05732 | 29 ft | 95 kts | 93° |
| 2026-05-07 21:50 | 51.50498 | 0.06379 | 29 ft | 22 kts | 93° |
| 2026-05-07 21:50 | 51.50484 | 0.06534 | 29 ft | 7 kts | 137° |
| 2026-05-07 21:51 | 51.50448 | 0.06508 | 29 ft | 6 kts | 223° |
| 2026-05-07 21:51 | 51.50421 | 0.06445 | 29 ft | 8 kts | 252° |
| 2026-05-07 21:51 | 51.50415 | 0.06339 | 29 ft | 12 kts | 272° |
| 2026-05-07 21:51 | 51.50420 | 0.06165 | 29 ft | 17 kts | 273° |
| 2026-05-07 21:52 | 51.50426 | 0.05967 | 29 ft | 19 kts | 273° |
| 2026-05-07 21:52 | 51.50432 | 0.05763 | 29 ft | 12 kts | 274° |
| 2026-05-07 21:52 | 51.50436 | 0.05623 | 28 ft | 14 kts | 273° |
| 2026-05-07 21:52 | 51.50442 | 0.05459 | 28 ft | 16 kts | 272° |
| 2026-05-07 21:53 | 51.50447 | 0.05307 | 28 ft | 9 kts | 274° |
| 2026-05-07 21:53 | 51.50432 | 0.05277 | 28 ft | 2 kts | 197° |
| 2026-05-07 21:53 | 51.50407 | 0.05273 | 28 ft | 3 kts | 184° |
| 2026-05-07 21:53 | 51.50402 | 0.05273 | 28 ft | 0 kts | 187° |
| 2026-05-07 21:54 | 51.50400 | 0.05266 | 28 ft | 1 kts | 222° |
| 2026-05-07 21:54 | 51.50405 | 0.05254 | 28 ft | 1 kts | 302° |
| 2026-05-07 21:54 | 51.50407 | 0.05254 | 28 ft | 0 kts | 320° |